createdAt,value
2023-11-28T00:00:36.607Z,98951.25
2023-11-28T00:03:04.475Z,98956.66
2023-11-28T00:05:31.976Z,98953.19
2023-11-28T00:08:00.564Z,98948.63
2023-11-28T00:10:27.704Z,98956.81
2023-11-28T00:12:54.462Z,98955.16
2023-11-28T00:15:21.245Z,98964.94
2023-11-28T00:17:48.067Z,98960.69
2023-11-28T00:20:15.259Z,98964.28
2023-11-28T00:22:42.051Z,98957.72
2023-11-28T00:25:09.124Z,98963.78
2023-11-28T00:27:35.893Z,98964.91
2023-11-28T00:30:02.833Z,98960.81
2023-11-28T00:32:29.649Z,98967.16
2023-11-28T00:34:56.498Z,98956.72
2023-11-28T00:37:23.243Z,98962.25
2023-11-28T00:39:49.976Z,98957.03
2023-11-28T00:42:16.822Z,98961.94
2023-11-28T00:44:43.681Z,98961.13
2023-11-28T00:47:11.507Z,98972.38
2023-11-28T00:49:43.396Z,98962.59
2023-11-28T00:52:12.439Z,98969.09
2023-11-28T00:54:39.556Z,98968.44
2023-11-28T00:57:07.203Z,98972.19
2023-11-28T00:59:34.014Z,98974.66
2023-11-28T01:02:02.026Z,98974.66
2023-11-28T01:04:28.980Z,98978.22
2023-11-28T01:06:55.921Z,98981.50
2023-11-28T01:09:22.647Z,98980.34
2023-11-28T01:11:49.488Z,98984.59
2023-11-28T01:14:16.205Z,98976.91
2023-11-28T01:16:46.760Z,98983.09
2023-11-28T01:19:14.911Z,98985.72
2023-11-28T01:21:41.633Z,98986.53
2023-11-28T01:24:08.497Z,98992.25
2023-11-28T01:26:35.188Z,98995.34
2023-11-28T01:29:02.087Z,98993.69
2023-11-28T01:35:04.725Z,99000.03
2023-11-28T01:37:31.535Z,99005.56
2023-11-28T01:39:58.293Z,99002.13
2023-11-28T01:42:25.211Z,99001.00
2023-11-28T01:44:52.111Z,99004.88
2023-11-28T01:47:18.941Z,99009.81
2023-11-28T01:49:45.934Z,99005.53
2023-11-28T01:52:13.927Z,99004.88
2023-11-28T01:54:44.271Z,99004.41
2023-11-28T01:57:11.959Z,99016.47
2023-11-28T01:59:42.075Z,99015.13
2023-11-28T02:02:09.827Z,99015.31
2023-11-28T02:04:36.801Z,99022.13
2023-11-28T02:07:03.653Z,99017.91
2023-11-28T02:09:31.015Z,99023.94
2023-11-28T02:11:58.723Z,99023.63
2023-11-28T02:14:25.652Z,99033.09
2023-11-28T02:16:54.718Z,99027.44
2023-11-28T02:19:21.569Z,99027.06
2023-11-28T02:21:50.049Z,99026.22
2023-11-28T02:24:18.965Z,99036.84
2023-11-28T02:26:45.944Z,99034.53
2023-11-28T02:29:12.715Z,99038.13
2023-11-28T02:31:39.526Z,99047.22
2023-11-28T02:34:06.274Z,99042.97
2023-11-28T02:36:34.286Z,99048.56
2023-11-28T02:39:01.052Z,99051.44
2023-11-28T02:41:27.804Z,99045.94
2023-11-28T02:43:54.755Z,99043.94
2023-11-28T02:46:21.616Z,99044.75
2023-11-28T02:48:49.145Z,99054.06
2023-11-28T02:51:21.524Z,99054.88
2023-11-28T02:53:48.788Z,99056.53
2023-11-28T02:56:15.531Z,99054.66
2023-11-28T02:58:42.609Z,99058.47
2023-11-28T03:01:09.480Z,99061.22
2023-11-28T03:03:36.807Z,99061.22
2023-11-28T03:06:03.926Z,99062.34
2023-11-28T03:08:30.660Z,99060.56
2023-11-28T03:10:57.589Z,99065.47
2023-11-28T03:13:24.368Z,99064.81
2023-11-28T03:15:51.124Z,99071.66
2023-11-28T03:18:17.896Z,99076.59
2023-11-28T03:20:44.633Z,99080.16
2023-11-28T03:23:12.080Z,99080.47
2023-11-28T03:25:38.846Z,99077.69
2023-11-28T03:28:05.608Z,99078.53
2023-11-28T03:30:32.390Z,99081.44
2023-11-28T03:32:59.227Z,99076.75
2023-11-28T03:35:28.516Z,99077.41
2023-11-28T03:37:55.528Z,99085.69
2023-11-28T03:40:22.335Z,99086.38
2023-11-28T03:42:49.097Z,99085.69
2023-11-28T03:45:15.900Z,99091.72
2023-11-28T03:47:42.644Z,99092.53
2023-11-28T03:50:09.992Z,99097.25
2023-11-28T03:52:36.832Z,99099.34
2023-11-28T03:55:04.166Z,99104.41
2023-11-28T03:57:30.930Z,99103.88
2023-11-28T03:59:57.794Z,99116.25
2023-11-28T04:02:25.062Z,99114.59
2023-11-28T04:04:53.496Z,99111.84
2023-11-28T04:07:20.230Z,99118.72
2023-11-28T04:09:47.858Z,99125.03
2023-11-28T04:12:14.572Z,99126.69
2023-11-28T04:14:42.160Z,99134.78
2023-11-28T04:17:09.094Z,99132.50
2023-11-28T04:19:36.001Z,99145.53
2023-11-28T04:22:02.872Z,99146.22
2023-11-28T04:24:31.647Z,99157.59
2023-11-28T04:26:58.901Z,99156.97
2023-11-28T04:29:25.725Z,99151.34
2023-11-28T04:31:52.994Z,99150.41
2023-11-28T04:34:19.930Z,99156.97
2023-11-28T04:36:50.201Z,99151.75
2023-11-28T04:39:18.151Z,99163.81
2023-11-28T04:41:48.597Z,99161.34
2023-11-28T04:44:15.380Z,99153.97
2023-11-28T04:46:42.227Z,99160.28
2023-11-28T04:49:13.575Z,99173.19
2023-11-28T04:51:40.549Z,99173.19
2023-11-28T04:54:07.379Z,99167.66
2023-11-28T04:56:34.402Z,99170.72
2023-11-28T04:59:01.308Z,99173.47
2023-11-28T05:01:28.212Z,99185.16
2023-11-28T05:03:55.122Z,99182.03
2023-11-28T05:06:22.217Z,99189.88
2023-11-28T05:08:49.265Z,99187.53
2023-11-28T05:11:16.328Z,99197.44
2023-11-28T05:13:43.771Z,99202.94
2023-11-28T05:16:10.568Z,99197.06
2023-11-28T05:18:37.374Z,99206.00
2023-11-28T05:21:04.410Z,99206.00
2023-11-28T05:23:31.485Z,99215.88
2023-11-28T05:25:58.428Z,99218.09
2023-11-28T05:28:25.457Z,99226.88
2023-11-28T05:30:52.310Z,99220.03
2023-11-28T05:33:19.183Z,99229.09
2023-11-28T05:35:45.927Z,99236.94
2023-11-28T05:38:12.798Z,99234.31
2023-11-28T05:40:40.550Z,99235.00
2023-11-28T05:43:07.444Z,99229.78
2023-11-28T05:45:34.344Z,99235.44
2023-11-28T05:48:03.967Z,99243.66
2023-11-28T05:50:31.408Z,99242.59
2023-11-28T05:52:58.494Z,99246.19
2023-11-28T05:55:26.733Z,99254.69
2023-11-28T05:57:53.572Z,99253.00
2023-11-28T06:00:20.408Z,99251.38
2023-11-28T06:02:48.022Z,99262.63
2023-11-28T06:05:15.018Z,99266.19
2023-11-28T06:07:42.787Z,99274.00
2023-11-28T06:10:15.237Z,99280.75
2023-11-28T06:12:42.378Z,99288.69
2023-11-28T06:15:10.102Z,99286.63
2023-11-28T06:17:37.094Z,99287.44
2023-11-28T06:20:06.175Z,99293.34
2023-11-28T06:22:33.512Z,99299.38
2023-11-28T06:25:00.627Z,99291.84
2023-11-28T06:27:27.478Z,99302.78
2023-11-28T06:29:54.252Z,99303.78
2023-11-28T06:32:21.297Z,99321.31
2023-11-28T06:34:48.507Z,99325.72
2023-11-28T06:37:15.465Z,99330.66
2023-11-28T06:39:42.942Z,99340.53
2023-11-28T06:42:09.726Z,99338.63
2023-11-28T06:44:36.490Z,99347.13
2023-11-28T06:47:04.282Z,99353.97
2023-11-28T06:49:33.361Z,99361.09
2023-11-28T06:52:03.694Z,99366.44
2023-11-28T06:54:31.111Z,99367.28
2023-11-28T06:56:58.004Z,99370.72
2023-11-28T06:59:24.767Z,99389.50
2023-11-28T07:01:51.806Z,99391.03
2023-11-28T07:04:18.700Z,99397.31
2023-11-28T07:06:45.478Z,99404.44
2023-11-28T07:09:12.267Z,99409.38
2023-11-28T07:11:39.055Z,99410.09
2023-11-28T07:14:07.023Z,99418.59
2023-11-28T07:16:35.965Z,99426.13
2023-11-28T07:19:02.924Z,99426.53
2023-11-28T07:21:29.779Z,99427.09
2023-11-28T07:23:56.529Z,99428.59
2023-11-28T07:26:23.312Z,99437.63
2023-11-28T07:28:50.081Z,99437.75
2023-11-28T07:31:17.732Z,99451.06
2023-11-28T07:33:44.623Z,99454.25
2023-11-28T07:36:14.309Z,99453.00
2023-11-28T07:38:44.442Z,99448.72
2023-11-28T07:41:15.748Z,99453.94
2023-11-28T07:43:43.429Z,99462.56
2023-11-28T07:46:11.447Z,99473.97
2023-11-28T07:48:38.275Z,99469.13
2023-11-28T07:51:05.830Z,99475.44
2023-11-28T07:53:33.508Z,99477.91
2023-11-28T07:56:00.348Z,99485.44
2023-11-28T07:58:27.161Z,99490.53
2023-11-28T08:00:53.968Z,99496.09
2023-11-28T08:03:20.801Z,99496.50
2023-11-28T08:05:48.645Z,99493.50
2023-11-28T08:08:16.698Z,99502.63
2023-11-28T08:10:45.030Z,99497.56
2023-11-28T08:13:12.725Z,99500.31
2023-11-28T08:15:39.532Z,99506.84
2023-11-28T08:18:06.560Z,99509.28
2023-11-28T08:20:33.346Z,99515.31
2023-11-28T08:23:00.320Z,99510.78
2023-11-28T08:25:27.199Z,99523.81
2023-11-28T08:27:54.040Z,99522.19
2023-11-28T08:30:20.844Z,99532.59
2023-11-28T08:32:47.763Z,99531.38
2023-11-28T08:35:14.922Z,99540.00
2023-11-28T08:37:42.178Z,99536.47
2023-11-28T08:40:09.658Z,99541.28
2023-11-28T08:42:36.495Z,99550.47
2023-11-28T08:45:03.272Z,99550.66
2023-11-28T08:47:30.111Z,99553.56
2023-11-28T08:50:00.889Z,99553.72
2023-11-28T08:52:28.756Z,99545.69
2023-11-28T08:54:55.517Z,99554.50
2023-11-28T08:57:22.444Z,99556.16
2023-11-28T08:59:49.912Z,99559.22
2023-11-28T09:02:16.944Z,99565.41
2023-11-28T09:04:44.051Z,99566.25
2023-11-28T09:07:11.233Z,99567.22
2023-11-28T09:09:37.987Z,99574.38
2023-11-28T09:12:05.052Z,99582.84
2023-11-28T09:14:38.943Z,99587.25
2023-11-28T09:17:11.238Z,99583.69
2023-11-28T09:19:38.415Z,99589.31
2023-11-28T09:22:06.897Z,99590.44
2023-11-28T09:24:33.917Z,99594.97
2023-11-28T09:27:00.766Z,99593.03
2023-11-28T09:29:27.512Z,99596.47
2023-11-28T09:31:56.342Z,99595.22
2023-11-28T09:34:23.635Z,99604.56
2023-11-28T09:36:50.426Z,99602.63
2023-11-28T09:39:17.217Z,99609.53
2023-11-28T09:44:16.421Z,99607.31
2023-11-28T09:46:50.587Z,99607.06
2023-11-28T09:49:22.589Z,99611.97
2023-11-28T09:51:50.271Z,99623.50
2023-11-28T09:54:18.223Z,99622.44
2023-11-28T09:56:48.058Z,99616.38
2023-11-28T09:59:16.328Z,99618.84
2023-11-28T10:01:47.000Z,99620.75
2023-11-28T10:04:14.080Z,99623.34
2023-11-28T10:06:47.994Z,99624.88
2023-11-28T10:09:16.840Z,99619.38
2023-11-28T10:11:44.644Z,99620.19
2023-11-28T10:14:11.832Z,99624.44
2023-11-28T10:16:48.094Z,99616.72
2023-11-28T10:19:15.312Z,99632.25
2023-11-28T10:21:42.119Z,99623.69
2023-11-28T10:24:12.433Z,99630.13
2023-11-28T10:26:39.528Z,99626.13
2023-11-28T10:29:07.857Z,99638.19
2023-11-28T10:31:38.961Z,99630.44
2023-11-28T10:34:11.951Z,99630.16
2023-11-28T10:36:47.636Z,99638.25
2023-11-28T10:39:16.903Z,99638.69
2023-11-28T10:41:43.831Z,99633.16
2023-11-28T10:44:10.759Z,99632.91
2023-11-28T10:46:40.292Z,99637.56
2023-11-28T10:49:07.360Z,99637.63
2023-11-28T10:51:35.050Z,99640.63
2023-11-28T10:54:08.571Z,99634.66
2023-11-28T10:56:38.126Z,99633.84
2023-11-28T10:59:10.072Z,99640.09
2023-11-28T11:01:37.137Z,99647.56
2023-11-28T11:04:05.250Z,99651.81
2023-11-28T11:06:32.120Z,99649.31
2023-11-28T11:08:59.842Z,99644.09
2023-11-28T11:11:27.475Z,99647.22
2023-11-28T11:14:02.868Z,99652.28
2023-11-28T11:16:39.268Z,99662.59
2023-11-28T11:19:07.609Z,99666.00
2023-11-28T11:21:44.034Z,99670.19
2023-11-28T11:24:20.654Z,99660.88
2023-11-28T11:26:51.265Z,99660.75
2023-11-28T11:29:27.035Z,99666.34
2023-11-28T11:31:57.575Z,99670.31
2023-11-28T11:34:43.485Z,99675.22
2023-11-28T11:37:30.333Z,99688.53
2023-11-28T11:40:00.610Z,99679.53
2023-11-28T11:42:28.092Z,99677.34
2023-11-28T11:44:58.807Z,99685.94
2023-11-28T11:47:30.031Z,99677.44
2023-11-28T11:49:58.812Z,99681.81
2023-11-28T11:52:26.565Z,99687.50
2023-11-28T11:55:03.391Z,99679.38
2023-11-28T11:57:30.491Z,99691.78
2023-11-28T11:59:58.030Z,99686.03
2023-11-28T12:02:24.875Z,99699.53
2023-11-28T12:04:51.746Z,99693.22
2023-11-28T12:07:19.156Z,99696.59
2023-11-28T12:09:45.946Z,99700.97
2023-11-28T12:12:16.071Z,99699.66
2023-11-28T12:14:42.873Z,99698.00
2023-11-28T12:17:09.962Z,99697.72
2023-11-28T12:19:36.990Z,99699.66
2023-11-28T12:22:06.812Z,99707.22
2023-11-28T12:24:33.987Z,99700.50
2023-11-28T12:27:03.678Z,99711.66
2023-11-28T12:29:32.250Z,99715.38
2023-11-28T12:31:59.456Z,99721.19
2023-11-28T12:34:27.377Z,99715.69
2023-11-28T12:36:58.410Z,99730.41
2023-11-28T12:39:27.066Z,99734.00
2023-11-28T12:41:57.714Z,99731.41
2023-11-28T12:44:26.821Z,99734.00
2023-11-28T12:46:53.981Z,99737.44
2023-11-28T12:49:22.522Z,99734.69
2023-11-28T12:51:49.628Z,99736.50
2023-11-28T12:54:19.031Z,99740.31
2023-11-28T12:56:54.787Z,99742.25
2023-11-28T12:59:24.832Z,99744.59
2023-11-28T13:01:57.110Z,99747.88
2023-11-28T13:04:25.080Z,99753.81
2023-11-28T13:07:05.105Z,99755.84
2023-11-28T13:09:38.859Z,99757.22
2023-11-28T13:12:07.566Z,99761.03
2023-11-28T13:14:38.133Z,99763.50
2023-11-28T13:17:07.975Z,99771.22
2023-11-28T13:19:35.814Z,99763.50
2023-11-28T13:22:02.779Z,99774.94
2023-11-28T13:24:29.580Z,99774.84
2023-11-28T13:26:56.946Z,99772.13
2023-11-28T13:29:24.860Z,99777.59
2023-11-28T13:31:52.696Z,99776.25
2023-11-28T13:34:20.285Z,99778.84
2023-11-28T13:36:48.413Z,99780.97
2023-11-28T13:39:15.228Z,99777.09
2023-11-28T13:41:42.248Z,99783.72
2023-11-28T13:44:09.153Z,99785.63
2023-11-28T13:46:36.074Z,99784.00
2023-11-28T13:49:04.073Z,99793.22
2023-11-28T13:51:31.406Z,99794.34
2023-11-28T13:53:58.513Z,99786.75
2023-11-28T13:56:25.557Z,99791.72
2023-11-28T13:58:52.508Z,99790.09
2023-11-28T14:01:19.952Z,99792.53
2023-11-28T14:03:47.191Z,99796.13
2023-11-28T14:06:13.975Z,99792.84
2023-11-28T14:08:40.754Z,99789.53
2023-11-28T14:11:08.519Z,99792.03
2023-11-28T14:13:36.918Z,99800.00
2023-11-28T14:16:05.818Z,99803.84
2023-11-28T14:18:32.923Z,99802.47
2023-11-28T14:21:02.105Z,99804.41
2023-11-28T14:23:30.237Z,99801.09
2023-11-28T14:25:57.037Z,99797.53
2023-11-28T14:28:23.835Z,99794.25
2023-11-28T14:30:50.594Z,99800.97
2023-11-28T14:33:17.372Z,99806.19
2023-11-28T14:35:44.258Z,99801.66
2023-11-28T14:38:13.653Z,99802.75
2023-11-28T14:40:40.492Z,99802.75
2023-11-28T14:43:08.116Z,99807.97
2023-11-28T14:45:35.052Z,99801.09
2023-11-28T14:48:03.624Z,99798.09
2023-11-28T14:50:32.154Z,99805.38
2023-11-28T14:52:59.633Z,99802.75
2023-11-28T14:55:26.710Z,99813.31
2023-11-28T14:57:54.223Z,99810.31
2023-11-28T15:00:22.796Z,99814.53
2023-11-28T15:02:50.121Z,99817.97
2023-11-28T15:05:17.323Z,99816.06
2023-11-28T15:07:44.388Z,99822.22
2023-11-28T15:10:12.385Z,99829.13
2023-11-28T15:12:39.375Z,99828.84
2023-11-28T15:15:06.950Z,99835.66
2023-11-28T15:17:34.543Z,99839.25
2023-11-28T15:20:01.836Z,99843.59
2023-11-28T15:22:30.365Z,99850.47
2023-11-28T15:24:57.431Z,99851.69
2023-11-28T15:27:24.669Z,99850.03
2023-11-28T15:29:53.026Z,99850.16
2023-11-28T15:32:24.044Z,99855.53
2023-11-28T15:34:51.159Z,99857.97
2023-11-28T15:37:17.989Z,99853.16
2023-11-28T15:39:44.757Z,99846.56
2023-11-28T15:42:11.917Z,99861.16
2023-11-28T15:44:38.703Z,99858.91
2023-11-28T15:47:05.622Z,99866.38
2023-11-28T15:49:40.360Z,99858.09
2023-11-28T15:52:15.527Z,99863.53
2023-11-28T15:54:43.143Z,99869.63
2023-11-28T15:57:12.610Z,99867.25
2023-11-28T15:59:43.980Z,99868.09
2023-11-28T16:02:12.291Z,99869.84
2023-11-28T16:04:41.169Z,99878.22
2023-11-28T16:07:09.450Z,99868.84
2023-11-28T16:09:36.453Z,99866.13
2023-11-28T16:12:03.706Z,99864.22
2023-11-28T16:14:30.676Z,99872.03
2023-11-28T16:16:57.580Z,99865.44
2023-11-28T16:19:24.374Z,99872.88
2023-11-28T16:21:51.645Z,99877.03
2023-11-28T16:24:18.382Z,99876.75
2023-11-28T16:26:46.690Z,99875.66
2023-11-28T16:29:16.511Z,99875.53
2023-11-28T16:31:43.767Z,99879.78
2023-11-28T16:34:10.734Z,99887.59
2023-11-28T16:36:39.822Z,99878.13
2023-11-28T16:39:08.418Z,99871.00
2023-11-28T16:41:35.402Z,99874.44
2023-11-28T16:44:02.294Z,99875.41
2023-11-28T16:46:29.224Z,99877.16
2023-11-28T16:48:56.030Z,99879.34
2023-11-28T16:51:25.064Z,99881.16
2023-11-28T16:53:51.944Z,99875.34
2023-11-28T16:56:18.760Z,99873.97
2023-11-28T16:58:45.895Z,99885.38
2023-11-28T17:01:16.352Z,99893.19
2023-11-28T17:03:43.508Z,99886.31
2023-11-28T17:06:14.636Z,99883.97
2023-11-28T17:08:43.328Z,99883.38
2023-11-28T17:11:14.169Z,99886.00
2023-11-28T17:13:42.949Z,99887.50
2023-11-28T17:16:10.534Z,99894.53
2023-11-28T17:18:37.598Z,99892.03
2023-11-28T17:21:04.829Z,99891.47
2023-11-28T17:23:35.239Z,99893.94
2023-11-28T17:26:02.769Z,99883.50
2023-11-28T17:28:30.987Z,99893.25
2023-11-28T17:30:58.267Z,99898.47
2023-11-28T17:33:25.206Z,99910.44
2023-11-28T17:35:52.192Z,99920.41
2023-11-28T17:38:19.563Z,99914.50
2023-11-28T17:40:46.594Z,99902.03
2023-11-28T17:43:15.524Z,99909.84
2023-11-28T17:45:42.477Z,99912.34
2023-11-28T17:48:09.577Z,99906.03
2023-11-28T17:50:36.524Z,99892.84
2023-11-28T17:53:04.024Z,99898.66
2023-11-28T17:55:30.841Z,99888.91
2023-11-28T17:57:57.614Z,99882.75
2023-11-28T18:00:25.283Z,99882.59
2023-11-28T18:02:53.261Z,99892.22
2023-11-28T18:05:21.658Z,99884.66
2023-11-28T18:07:49.848Z,99887.50
2023-11-28T18:10:16.924Z,99894.91
2023-11-28T18:12:44.069Z,99886.63
2023-11-28T18:15:23.031Z,99898.25
2023-11-28T18:17:56.284Z,99902.34
2023-11-28T18:20:23.230Z,99889.13
2023-11-28T18:22:50.593Z,99894.81
2023-11-28T18:25:17.424Z,99896.56
2023-11-28T18:27:44.227Z,99897.28
2023-11-28T18:30:12.301Z,99902.06
2023-11-28T18:32:39.359Z,99899.00
2023-11-28T18:35:07.043Z,99894.41
2023-11-28T18:37:34.009Z,99897.41
2023-11-28T18:40:00.961Z,99894.91
2023-11-28T18:42:27.814Z,99906.16
2023-11-28T18:44:54.660Z,99909.34
2023-11-28T18:47:21.561Z,99897.84
2023-11-28T18:49:48.899Z,99901.25
2023-11-28T18:52:15.694Z,99895.94
2023-11-28T18:54:42.586Z,99897.13
2023-11-28T18:57:09.388Z,99897.25
2023-11-28T18:59:36.361Z,99901.91
2023-11-28T19:02:03.625Z,99906.53
2023-11-28T19:04:30.986Z,99906.63
2023-11-28T19:06:57.833Z,99909.50
2023-11-28T19:09:24.959Z,99908.09
2023-11-28T19:11:52.293Z,99905.00
2023-11-28T19:14:19.199Z,99907.16
2023-11-28T19:16:46.004Z,99905.16
2023-11-28T19:19:12.730Z,99904.81
2023-11-28T19:21:45.188Z,99906.16
2023-11-28T19:24:13.648Z,99901.41
2023-11-28T19:26:41.540Z,99906.28
2023-11-28T19:29:08.456Z,99905.09
2023-11-28T19:31:36.530Z,99893.50
2023-11-28T19:34:04.288Z,99890.41
2023-11-28T19:36:31.830Z,99885.69
2023-11-28T19:39:00.873Z,99889.72
2023-11-28T19:41:27.802Z,99878.97
2023-11-28T19:43:54.691Z,99882.75
2023-11-28T19:46:22.138Z,99890.91
2023-11-28T19:48:48.939Z,99891.97
2023-11-28T19:51:16.089Z,99881.66
2023-11-28T19:53:44.783Z,99878.25
2023-11-28T19:56:11.847Z,99875.75
2023-11-28T19:58:40.510Z,99875.16
2023-11-28T20:01:09.122Z,99876.47
2023-11-28T20:03:39.624Z,99875.03
2023-11-28T20:06:07.749Z,99875.25
2023-11-28T20:08:35.134Z,99877.16
2023-11-28T20:11:01.952Z,99866.88
2023-11-28T20:13:28.798Z,99860.13
2023-11-28T20:15:55.657Z,99862.00
2023-11-28T20:18:22.586Z,99860.38
2023-11-28T20:20:49.491Z,99851.84
2023-11-28T20:23:16.403Z,99852.91
2023-11-28T20:25:43.227Z,99853.13
2023-11-28T20:28:10.935Z,99850.66
2023-11-28T20:30:37.845Z,99848.28
2023-11-28T20:33:04.812Z,99842.38
2023-11-28T20:35:31.683Z,99844.25
2023-11-28T20:37:58.498Z,99844.25
2023-11-28T20:40:26.847Z,99839.06
2023-11-28T20:42:54.101Z,99835.75
2023-11-28T20:45:21.204Z,99833.88
2023-11-28T20:47:48.603Z,99832.09
2023-11-28T20:50:15.735Z,99829.38
2023-11-28T20:52:42.601Z,99824.91
2023-11-28T20:55:10.053Z,99823.81
2023-11-28T20:57:37.306Z,99814.28
2023-11-28T21:00:10.792Z,99813.78
2023-11-28T21:02:38.588Z,99817.00
2023-11-28T21:05:06.078Z,99806.13
2023-11-28T21:07:32.916Z,99807.91
2023-11-28T21:09:59.687Z,99815.09
2023-11-28T21:12:26.601Z,99804.22
2023-11-28T21:14:53.372Z,99796.91
2023-11-28T21:17:20.404Z,99802.94
2023-11-28T21:19:50.529Z,99800.78
2023-11-28T21:22:17.376Z,99792.53
2023-11-28T21:24:44.130Z,99789.69
2023-11-28T21:27:10.945Z,99787.81
2023-11-28T21:29:39.548Z,99781.41
2023-11-28T21:32:06.707Z,99782.94
2023-11-28T21:34:35.686Z,99784.56
2023-11-28T21:37:02.835Z,99770.53
2023-11-28T21:39:32.053Z,99773.81
2023-11-28T21:41:59.071Z,99773.69
2023-11-28T21:44:25.916Z,99760.44
2023-11-28T21:46:52.984Z,99760.31
2023-11-28T21:49:19.935Z,99748.00
2023-11-28T21:51:46.990Z,99752.88
2023-11-28T21:54:14.746Z,99755.22
2023-11-28T21:56:41.696Z,99749.75
2023-11-28T21:59:09.058Z,99753.31
2023-11-28T22:01:36.169Z,99749.63
2023-11-28T22:04:05.735Z,99751.16
2023-11-28T22:06:32.807Z,99746.66
2023-11-28T22:09:02.693Z,99741.06
2023-11-28T22:11:32.838Z,99736.56
2023-11-28T22:13:59.586Z,99743.31
2023-11-28T22:16:26.347Z,99733.63
2023-11-28T22:18:53.154Z,99728.97
2023-11-28T22:21:24.051Z,99737.03
2023-11-28T22:23:52.495Z,99726.34
2023-11-28T22:26:19.310Z,99730.03
2023-11-28T22:28:46.036Z,99726.34
2023-11-28T22:31:12.828Z,99716.41
2023-11-28T22:33:39.596Z,99722.81
2023-11-28T22:36:06.407Z,99709.41
2023-11-28T22:38:33.216Z,99705.16
2023-11-28T22:41:00.030Z,99703.41
2023-11-28T22:43:26.799Z,99699.13
2023-11-28T22:45:54.106Z,99689.22
2023-11-28T22:48:21.806Z,99697.59
2023-11-28T22:50:48.723Z,99693.38
2023-11-28T22:53:15.593Z,99681.88
2023-11-28T22:55:42.444Z,99687.78
2023-11-28T22:58:10.042Z,99684.31
2023-11-28T23:00:37.796Z,99681.47
2023-11-28T23:03:04.882Z,99669.41
2023-11-28T23:05:31.736Z,99670.25
2023-11-28T23:07:58.544Z,99655.44
2023-11-28T23:10:25.473Z,99646.41
2023-11-28T23:12:52.281Z,99632.19
2023-11-28T23:15:19.598Z,99622.59
2023-11-28T23:17:46.836Z,99611.91
2023-11-28T23:20:13.781Z,99620.41
2023-11-28T23:22:48.183Z,99610.16
2023-11-28T23:25:22.554Z,99604.28
2023-11-28T23:27:49.696Z,99591.25
2023-11-28T23:30:16.594Z,99588.53
2023-11-28T23:32:43.452Z,99603.06
2023-11-28T23:35:10.346Z,99603.88
2023-11-28T23:37:37.164Z,99604.47
2023-11-28T23:40:06.245Z,99599.13
2023-11-28T23:42:43.346Z,99589.97
2023-11-28T23:45:13.883Z,99601.47
2023-11-28T23:47:40.836Z,99599.41
2023-11-28T23:50:08.381Z,99593.94
2023-11-28T23:52:35.176Z,99579.69
2023-11-28T23:55:02.017Z,99586.56
2023-11-28T23:57:28.754Z,99587.38
2023-11-28T23:59:55.680Z,99586.44
